Time;durP1;ratioP1;P1;durP2;ratioP2;P2;SDS_P1;SDS_P2;PMS_P1;PMS_P2;Temp;Humidity;BMP_temperature;BMP_pressure;BME280_temperature;BME280_humidity;BME280_pressure;Samples;Min_cycle;Max_cycle;Signal;HPM_P1;HPM_P2
2021/07/15 00:04:30;;;;;;;16.93;13.20;;;;;;;26.07;66.58;94769.97;5052343;28;20444;-82
2021/07/15 00:06:57;;;;;;;15.63;12.87;;;;;;;26.02;67.25;94776.03;5053320;28;20445;-82
2021/07/15 00:09:24;;;;;;;14.57;13.07;;;;;;;26.11;66.96;94768.44;5053553;28;20447;-81
2021/07/15 00:11:52;;;;;;;18.10;12.80;;;;;;;26.08;67.54;94771.59;5053080;28;20955;-82
2021/07/15 00:14:20;;;;;;;13.83;12.50;;;;;;;26.12;67.70;94781.66;5053689;28;20520;-82
2021/07/15 00:16:53;;;;;;;22.37;12.70;;;;;;;26.19;67.28;94778.88;5054360;28;20528;-82
2021/07/15 00:19:20;;;;;;;13.60;12.40;;;;;;;26.20;66.90;94770.56;5057847;28;20532;-82
2021/07/15 00:21:49;;;;;;;19.33;13.43;;;;;;;26.09;67.78;94766.00;5057603;28;20540;-81
2021/07/15 00:24:17;;;;;;;15.13;12.30;;;;;;;26.17;67.49;94781.78;5057076;28;20914;-81
2021/07/15 00:26:44;;;;;;;14.43;12.27;;;;;;;25.94;68.86;94773.63;5006862;28;20445;-81
2021/07/15 00:29:12;;;;;;;13.90;12.30;;;;;;;25.85;68.94;94772.31;5057259;28;20527;-82
2021/07/15 00:31:41;;;;;;;18.53;13.30;;;;;;;25.94;68.53;94771.78;5057964;28;20520;-82
2021/07/15 00:34:08;;;;;;;13.60;12.33;;;;;;;25.89;68.86;94779.69;5057339;28;20437;-81
2021/07/15 00:36:35;;;;;;;15.10;12.83;;;;;;;25.86;68.75;94780.16;5057915;28;20754;-81
2021/07/15 00:39:05;;;;;;;18.77;13.10;;;;;;;25.83;68.85;94786.00;5056789;28;20483;-82
2021/07/15 00:41:31;;;;;;;18.60;13.60;;;;;;;25.81;68.97;94773.81;5056789;28;20533;-81
2021/07/15 00:43:58;;;;;;;14.30;12.87;;;;;;;25.81;69.25;94771.13;5022616;28;20537;-82
2021/07/15 00:46:25;;;;;;;14.53;13.13;;;;;;;25.70;69.92;94777.25;5056959;28;20535;-82
2021/07/15 00:48:52;;;;;;;14.50;13.10;;;;;;;25.65;70.41;94769.84;5057299;28;20511;-82
2021/07/15 00:51:21;;;;;;;19.10;14.13;;;;;;;25.73;69.96;94771.44;5065189;28;20468;-81
2021/07/15 00:53:49;;;;;;;14.47;12.50;;;;;;;25.69;70.32;94771.06;5077121;28;20440;-82
2021/07/15 00:56:17;;;;;;;14.77;13.37;;;;;;;25.69;70.02;94762.19;5025427;28;20795;-83
2021/07/15 00:58:44;;;;;;;18.93;13.20;;;;;;;25.64;70.29;94760.97;5076367;28;20983;-82
2021/07/15 01:01:11;;;;;;;15.30;12.60;;;;;;;25.58;70.48;94766.44;5077309;28;20851;-81
2021/07/15 01:03:38;;;;;;;14.80;13.07;;;;;;;25.60;70.19;94753.59;5077439;28;20852;-81
2021/07/15 01:16:33;;;;;;;22.03;14.10;;;;;;;25.25;72.42;94751.53;5076277;28;20419;-82
2021/07/15 01:19:25;;;;;;;16.27;13.63;;;;;;;25.29;72.75;94760.78;5077067;28;20475;-81
2021/07/15 01:22:09;;;;;;;14.33;12.97;;;;;;;25.22;72.68;94751.97;5076375;28;20432;-81
2021/07/15 01:25:10;;;;;;;15.80;12.97;;;;;;;25.24;73.08;94749.06;5076056;28;20446;-81
2021/07/15 01:27:50;;;;;;;16.40;13.90;;;;;;;25.18;73.46;94750.78;5076022;28;20978;-82
2021/07/15 01:30:20;;;;;;;14.57;12.73;;;;;;;25.11;74.17;94750.03;5076079;28;20865;-82
2021/07/15 01:33:03;;;;;;;16.70;14.53;;;;;;;25.06;74.69;94749.06;5075877;28;20438;-82
2021/07/15 01:35:32;;;;;;;18.33;14.07;;;;;;;25.07;74.32;94748.00;5075824;28;20443;-81
2021/07/15 01:38:01;;;;;;;14.57;13.07;;;;;;;25.04;74.65;94749.28;5075974;28;20433;-82
2021/07/15 01:40:35;;;;;;;14.93;13.40;;;;;;;25.00;74.49;94754.28;5075954;28;20535;-82
2021/07/15 01:43:06;;;;;;;13.80;12.30;;;;;;;25.05;74.29;94750.91;5075642;28;20439;-81
2021/07/15 01:45:35;;;;;;;13.80;12.40;;;;;;;25.03;74.84;94747.63;5076178;28;20440;-82
2021/07/15 01:48:02;;;;;;;15.67;13.87;;;;;;;24.99;74.69;94749.94;5076424;28;20456;-82
2021/07/15 01:50:29;;;;;;;18.97;13.20;;;;;;;24.95;74.84;94739.84;5076113;28;20434;-81
2021/07/15 01:52:56;;;;;;;16.70;13.53;;;;;;;25.00;74.60;94748.09;5055682;28;20850;-81
2021/07/15 01:55:24;;;;;;;19.90;14.30;;;;;;;25.06;74.05;94752.56;5055461;28;20439;-81
2021/07/15 01:57:53;;;;;;;15.60;13.90;;;;;;;25.07;74.08;94756.06;5056063;28;20791;-81
2021/07/15 02:00:21;;;;;;;16.93;13.47;;;;;;;24.97;74.98;94759.25;5055558;28;20484;-81
2021/07/15 02:02:51;;;;;;;18.13;14.43;;;;;;;24.94;74.60;94757.81;5055383;28;20466;-81
2021/07/15 02:05:20;;;;;;;16.33;14.73;;;;;;;24.95;75.04;94755.97;5055831;28;20445;-81
2021/07/15 02:07:49;;;;;;;18.93;15.63;;;;;;;24.95;75.18;94753.28;5055125;28;20787;-81
2021/07/15 02:10:19;;;;;;;19.70;13.10;;;;;;;24.93;74.40;94752.69;5055717;28;20440;-81
2021/07/15 02:12:47;;;;;;;16.30;14.60;;;;;;;24.90;75.44;94756.63;5054983;28;20440;-81
2021/07/15 02:15:14;;;;;;;17.30;14.60;;;;;;;24.87;75.30;94759.75;5055763;28;20435;-81
2021/07/15 02:17:43;;;;;;;18.80;14.50;;;;;;;24.76;76.06;94756.97;5054989;28;20520;-81
2021/07/15 02:20:15;;;;;;;19.87;14.90;;;;;;;24.72;76.46;94753.91;5055086;28;20483;-81
2021/07/15 02:26:05;;;;;;;16.13;14.53;;;;;;;24.71;76.29;94757.63;5054696;28;20450;-81
2021/07/15 02:28:34;;;;;;;18.70;14.80;;;;;;;24.64;77.07;94763.06;5054654;28;20952;-81
2021/07/15 02:31:05;;;;;;;17.90;16.07;;;;;;;24.56;77.23;94751.75;5055055;28;20449;-81
2021/07/15 02:33:33;;;;;;;18.30;14.33;;;;;;;24.58;76.87;94755.91;5036994;28;20430;-81
2021/07/15 02:36:05;;;;;;;17.83;16.03;;;;;;;24.56;77.07;94757.94;5055011;28;20451;-82
2021/07/15 02:38:34;;;;;;;18.30;14.13;;;;;;;24.51;77.53;94752.41;5055029;28;20490;-81
2021/07/15 02:41:02;;;;;;;18.43;15.63;;;;;;;24.45;78.23;94756.00;5054556;28;20897;-82
2021/07/15 02:43:29;;;;;;;21.83;16.67;;;;;;;24.45;78.24;94753.31;5020104;28;21323;-81
2021/07/15 02:45:56;;;;;;;20.33;16.10;;;;;;;24.52;77.93;94756.75;5054962;28;20463;-81
2021/07/15 02:48:23;;;;;;;18.57;16.57;;;;;;;24.52;78.01;94751.38;5054832;28;20447;-82
2021/07/15 02:50:50;;;;;;;17.47;15.67;;;;;;;24.56;77.88;94751.75;5057337;28;20444;-81
2021/07/15 02:53:20;;;;;;;19.33;16.87;;;;;;;24.50;77.67;94758.00;5074467;28;20436;-81
2021/07/15 02:55:53;;;;;;;22.83;14.63;;;;;;;24.48;78.44;94755.53;5039715;28;20542;-81
2021/07/15 02:58:27;;;;;;;18.33;15.30;;;;;;;24.53;77.98;94746.84;5039406;28;20617;-81
2021/07/15 03:00:58;;;;;;;19.73;15.53;;;;;;;24.60;77.68;94756.50;5074331;28;20922;-81
2021/07/15 03:03:38;;;;;;;16.63;14.93;;;;;;;24.68;77.93;94758.06;5074590;28;20527;-81
2021/07/15 03:06:10;;;;;;;16.70;14.40;;;;;;;24.43;78.82;94755.38;5074476;28;20440;-81
2021/07/15 03:08:44;;;;;;;16.60;14.10;;;;;;;24.51;78.20;94760.47;5074058;28;20527;-81
2021/07/15 03:11:12;;;;;;;18.40;14.70;;;;;;;24.40;79.12;94759.34;5074260;28;20487;-81
2021/07/15 03:13:41;;;;;;;15.53;13.93;;;;;;;24.41;79.01;94757.47;5074151;28;20444;-82
2021/07/15 03:16:08;;;;;;;16.27;14.37;;;;;;;24.48;78.79;94763.59;5074385;28;20453;-80
2021/07/15 03:18:38;;;;;;;18.33;15.03;;;;;;;24.47;79.09;94764.63;5039201;28;20526;-80
2021/07/15 03:21:06;;;;;;;17.07;14.93;;;;;;;24.50;79.19;94752.66;5074555;28;20433;-80
2021/07/15 03:23:36;;;;;;;20.97;14.57;;;;;;;24.58;78.99;94763.13;5073648;28;21029;-80
2021/07/15 03:26:06;;;;;;;16.77;15.17;;;;;;;24.57;78.71;94764.97;5074296;28;20768;-80
2021/07/15 03:28:36;;;;;;;17.80;14.30;;;;;;;24.62;78.57;94769.69;5073551;28;21034;-80
2021/07/15 03:31:05;;;;;;;21.67;15.13;;;;;;;24.69;78.59;94768.59;5074843;28;20435;-80
2021/07/15 03:33:34;;;;;;;16.27;14.40;;;;;;;24.61;78.24;94768.03;5073368;28;20446;-80
2021/07/15 03:36:03;;;;;;;16.53;14.70;;;;;;;24.63;78.67;94766.78;5073436;28;20914;-81
2021/07/15 03:51:59;;;;;;;26.77;19.00;;;;;;;24.99;77.24;94757.19;5070154;28;20442;-80
2021/07/15 03:54:26;;;;;;;22.07;19.67;;;;;;;25.10;76.60;94761.81;5073605;28;20916;-80
2021/07/15 03:56:55;;;;;;;29.60;19.43;;;;;;;25.07;76.50;94766.81;5074553;28;20470;-81
2021/07/15 03:59:22;;;;;;;23.33;19.70;;;;;;;25.12;75.91;94770.44;5073517;28;20472;-81
2021/07/15 04:02:06;;;;;;;24.87;20.50;;;;;;;25.15;75.66;94759.25;5073622;28;20432;-82
2021/07/15 04:04:34;;;;;;;22.93;18.43;;;;;;;25.24;75.77;94765.19;4992256;28;20818;-80
2021/07/15 04:07:06;;;;;;;25.17;19.90;;;;;;;25.29;75.94;94766.16;4992046;28;20457;-82
2021/07/15 04:09:35;;;;;;;22.20;19.40;;;;;;;25.47;75.35;94768.03;4991869;28;20460;-81
2021/07/15 04:12:03;;;;;;;21.10;16.70;;;;;;;25.62;75.01;94763.06;4991720;28;20853;-81
2021/07/15 04:17:55;;;;;;;23.75;17.40;;;;;;;25.73;74.44;94758.00;4971404;28;20472;-81
2021/07/15 04:20:25;;;;;;;21.23;15.73;;;;;;;25.67;74.26;94754.34;4972281;28;20304;-79
2021/07/15 04:22:57;;;;;;;18.83;16.33;;;;;;;25.78;74.19;94766.22;4972447;28;20491;-81
2021/07/15 04:25:25;;;;;;;24.40;17.00;;;;;;;25.85;73.90;94757.00;4972367;28;20447;-81
2021/07/15 04:31:32;;;;;;;22.20;17.60;;;;;;;26.35;72.55;94762.13;4972289;28;20397;-77
2021/07/15 04:34:01;;;;;;;19.37;16.43;;;;;;;26.50;73.01;94753.59;4973004;28;20455;-80
2021/07/15 04:36:31;;;;;;;21.33;16.50;;;;;;;26.75;71.78;94758.78;4972618;28;20787;-79
2021/07/15 04:39:00;;;;;;;21.33;14.73;;;;;;;27.01;71.27;94755.66;4971917;28;20453;-80
2021/07/15 04:55:02;;;;;;;26.43;19.87;;;;;;;28.18;63.26;94749.97;5073138;28;20498;-80
2021/07/15 04:57:29;;;;;;;30.60;20.70;;;;;;;28.19;63.36;94748.06;5072571;28;20461;-79
2021/07/15 04:59:57;;;;;;;22.13;18.13;;;;;;;28.32;63.01;94753.19;5073484;28;20830;-78
2021/07/15 05:02:24;;;;;;;24.73;18.80;;;;;;;28.37;61.35;94748.72;5072890;28;20439;-81
2021/07/15 05:04:51;;;;;;;25.80;21.50;;;;;;;28.49;61.81;94755.91;5076338;28;20443;-80
2021/07/15 05:07:18;;;;;;;25.53;19.57;;;;;;;28.61;62.17;94759.34;5077243;28;20451;-80
2021/07/15 05:09:45;;;;;;;24.00;19.83;;;;;;;28.69;60.95;94756.25;5076186;28;20831;-80
2021/07/15 05:12:14;;;;;;;25.27;20.07;;;;;;;28.93;60.46;94752.34;5076204;28;20451;-80
2021/07/15 05:14:44;;;;;;;25.60;20.20;;;;;;;29.16;60.52;94758.59;5076440;28;20439;-80
2021/07/15 05:17:11;;;;;;;35.03;20.63;;;;;;;29.30;58.99;94766.13;5041577;28;20447;-80
2021/07/15 05:19:38;;;;;;;27.77;21.03;;;;;;;29.14;59.09;94768.84;5041464;28;20497;-80
2021/07/15 05:22:05;;;;;;;23.23;19.27;;;;;;;29.29;59.67;94767.19;5076296;28;20476;-80
2021/07/15 05:24:32;;;;;;;21.37;18.50;;;;;;;29.46;59.23;94771.75;5075965;28;20447;-81
2021/07/15 05:27:02;;;;;;;23.33;20.20;;;;;;;29.44;57.59;94769.28;5076252;28;20441;-80
2021/07/15 05:29:30;;;;;;;22.07;19.53;;;;;;;29.40;57.29;94772.72;5075870;28;20451;-80
2021/07/15 05:31:57;;;;;;;22.57;18.70;;;;;;;29.60;56.55;94767.63;5037345;28;20444;-80
2021/07/15 05:34:24;;;;;;;25.13;19.67;;;;;;;29.85;56.90;94773.34;5055917;28;20780;-80
2021/07/15 05:36:51;;;;;;;25.90;18.40;;;;;;;29.85;56.88;94769.81;5055732;28;20440;-80
2021/07/15 05:39:18;;;;;;;29.57;18.57;;;;;;;30.10;56.59;94772.84;5055533;28;20993;-80
2021/07/15 05:41:45;;;;;;;24.80;19.53;;;;;;;30.28;55.54;94771.66;5056276;28;20452;-80
2021/07/15 05:44:12;;;;;;;21.40;17.67;;;;;;;30.27;55.81;94777.34;5056112;28;20513;-79
2021/07/15 05:46:40;;;;;;;24.10;18.77;;;;;;;30.25;55.52;94768.66;5055387;28;20865;-80
2021/07/15 05:49:07;;;;;;;23.73;19.10;;;;;;;30.39;54.84;94776.13;5056123;28;20885;-80
2021/07/15 05:51:34;;;;;;;23.93;16.77;;;;;;;30.56;52.91;94775.19;5063823;28;20434;-80
2021/07/15 05:54:01;;;;;;;18.53;16.33;;;;;;;30.72;53.33;94774.28;5074829;28;20443;-81
2021/07/15 05:56:28;;;;;;;28.40;17.50;;;;;;;30.99;54.12;94766.09;5075785;28;20880;-81
2021/07/15 05:58:55;;;;;;;19.40;17.47;;;;;;;31.09;53.38;94764.25;5075312;28;20441;-80
2021/07/15 06:01:22;;;;;;;23.33;17.00;;;;;;;30.69;52.56;94774.81;5074938;28;20469;-80
2021/07/15 06:03:50;;;;;;;21.17;17.90;;;;;;;30.93;52.37;94767.91;5075333;28;20559;-81
2021/07/15 06:06:17;;;;;;;18.17;15.97;;;;;;;31.05;51.89;94763.16;5076366;28;20500;-81
2021/07/15 06:08:44;;;;;;;25.57;16.00;;;;;;;31.28;51.02;94766.59;5075144;28;20924;-81
2021/07/15 06:11:11;;;;;;;17.47;15.77;;;;;;;31.54;50.31;94760.22;5075171;28;20528;-80
2021/07/15 06:13:38;;;;;;;19.33;14.07;;;;;;;31.64;48.74;94762.16;5023793;28;20539;-81
2021/07/15 06:16:05;;;;;;;16.47;13.90;;;;;;;31.80;48.89;94757.63;5074786;28;20429;-81
2021/07/15 06:18:32;;;;;;;15.70;14.20;;;;;;;31.93;48.85;94752.53;5075085;28;20444;-81
2021/07/15 06:21:01;;;;;;;21.40;15.30;;;;;;;31.82;47.98;94750.88;5074811;28;20469;-81
2021/07/15 06:23:28;;;;;;;15.70;14.10;;;;;;;31.84;48.02;94751.44;5074865;28;20476;-81
2021/07/15 06:25:55;;;;;;;16.80;15.07;;;;;;;31.92;47.94;94753.63;5075449;28;20443;-81
2021/07/15 06:28:22;;;;;;;15.93;14.40;;;;;;;32.19;47.71;94750.72;5075064;28;20512;-81
2021/07/15 06:30:49;;;;;;;17.03;13.50;;;;;;;32.07;47.17;94752.84;5074722;28;20444;-80
2021/07/15 06:33:16;;;;;;;14.20;12.73;;;;;;;32.04;47.76;94746.03;5075665;28;20920;-81
2021/07/15 06:35:45;;;;;;;22.83;14.90;;;;;;;32.27;47.29;94741.25;5080978;28;20527;-81
2021/07/15 06:38:14;;;;;;;15.97;13.97;;;;;;;32.29;47.82;94744.50;5026373;28;20532;-80
2021/07/15 06:40:41;;;;;;;15.93;14.23;;;;;;;32.47;45.97;94740.47;5075187;28;20551;-81
2021/07/15 06:43:07;;;;;;;16.93;13.90;;;;;;;32.29;45.93;94736.34;5075155;28;20783;-81
2021/07/15 06:45:34;;;;;;;18.47;16.63;;;;;;;32.48;46.13;94731.22;5074712;28;21010;-81
2021/07/15 06:54:46;;;;;;;16.70;13.80;;;;;;;33.24;45.10;94726.56;5074110;28;20510;-81
2021/07/15 06:57:13;;;;;;;15.70;14.10;;;;;;;33.42;43.50;94727.91;5023647;28;20828;-80
2021/07/15 06:59:40;;;;;;;15.30;13.63;;;;;;;33.06;45.16;94723.63;5074120;28;20440;-81
2021/07/15 07:02:08;;;;;;;17.33;14.27;;;;;;;33.12;44.62;94731.50;5074393;28;20447;-80
2021/07/15 07:04:35;;;;;;;18.10;14.17;;;;;;;32.83;45.37;94720.38;5074321;28;20433;-80
2021/07/15 07:27:33;;;;;;;22.07;15.13;;;;;;;33.47;43.50;94706.13;5073619;28;20455;-80
2021/07/15 07:30:00;;;;;;;15.77;14.20;;;;;;;33.63;43.91;94706.91;5039075;28;20520;-81
2021/07/15 07:32:27;;;;;;;17.20;13.77;;;;;;;33.74;43.92;94700.31;5073951;28;20795;-81
2021/07/15 07:34:54;;;;;;;18.53;13.73;;;;;;;33.94;42.71;94691.25;5073730;28;20469;-81
2021/07/15 07:37:21;;;;;;;18.83;13.70;;;;;;;34.09;42.85;94693.88;5073613;28;20520;-81
2021/07/15 07:39:48;;;;;;;16.07;14.47;;;;;;;33.85;42.43;94695.69;5073796;28;20520;-80
2021/07/15 07:42:15;;;;;;;17.37;14.57;;;;;;;33.94;42.70;94695.88;5073470;28;20445;-81
2021/07/15 07:44:44;;;;;;;16.30;13.07;;;;;;;34.01;42.14;94693.66;5073443;28;20532;-81
2021/07/15 07:47:11;;;;;;;15.87;13.93;;;;;;;34.03;42.98;94680.56;5073523;28;20444;-81
2021/07/15 07:49:38;;;;;;;15.40;13.80;;;;;;;33.75;42.92;94690.22;5073650;28;20516;-80
2021/07/15 07:52:06;;;;;;;17.30;15.70;;;;;;;33.64;42.16;94685.94;5073373;28;20433;-80
2021/07/15 07:54:33;;;;;;;15.00;13.50;;;;;;;33.66;43.24;94684.56;5073854;28;20473;-81
2021/07/15 07:57:00;;;;;;;16.27;12.67;;;;;;;33.59;43.25;94677.81;5073857;28;20452;-81
2021/07/15 07:59:27;;;;;;;15.93;14.27;;;;;;;33.72;43.34;94688.06;5073765;28;20461;-81
2021/07/15 08:01:55;;;;;;;18.60;13.70;;;;;;;33.91;42.93;94688.28;5073224;28;20635;-81
2021/07/15 08:04:22;;;;;;;16.40;12.30;;;;;;;33.62;42.81;94678.06;5074197;28;20467;-81
2021/07/15 08:06:50;;;;;;;14.93;13.43;;;;;;;33.71;43.82;94679.09;5073185;28;20429;-80
2021/07/15 08:09:21;;;;;;;15.80;12.60;;;;;;;33.35;44.05;94680.34;5038313;28;20473;-81
2021/07/15 08:11:50;;;;;;;17.03;15.23;;;;;;;33.33;44.09;94671.63;5073926;28;20516;-80
2021/07/15 08:14:31;;;;;;;15.63;13.73;;;;;;;33.18;44.85;94676.00;5073492;28;20461;-82
2021/07/15 08:16:59;;;;;;;25.43;13.67;;;;;;;33.00;45.85;94667.63;5073492;28;20429;-81
2021/07/15 08:19:26;;;;;;;15.23;13.73;;;;;;;32.71;44.69;94675.53;5073356;28;20508;-81
2021/07/15 08:21:54;;;;;;;16.10;12.83;;;;;;;32.38;45.43;94671.44;5073085;28;20476;-80
2021/07/15 08:24:21;;;;;;;17.37;14.50;;;;;;;32.26;47.53;94671.72;5073514;28;20448;-80
2021/07/15 08:26:48;;;;;;;17.23;14.50;;;;;;;32.58;46.88;94671.44;5073482;28;20433;-80
2021/07/15 08:29:15;;;;;;;17.23;14.63;;;;;;;32.88;45.39;94666.00;5073624;28;20805;-81
2021/07/15 08:31:43;;;;;;;16.27;14.50;;;;;;;33.03;44.88;94667.88;5073220;28;20529;-79
2021/07/15 08:34:11;;;;;;;16.13;14.47;;;;;;;33.24;44.93;94664.00;5073429;28;20933;-81
2021/07/15 08:36:38;;;;;;;15.20;13.70;;;;;;;33.23;43.94;94664.28;5072985;28;21000;-81
2021/07/15 08:39:06;;;;;;;17.83;14.33;;;;;;;33.30;44.92;94664.00;5076390;28;20856;-81
2021/07/15 08:41:33;;;;;;;14.90;13.30;;;;;;;33.52;44.68;94662.56;5077013;28;20551;-81
2021/07/15 08:44:01;;;;;;;17.03;15.40;;;;;;;33.69;44.69;94662.22;5077467;28;20803;-80
2021/07/15 08:46:29;;;;;;;16.20;14.07;;;;;;;33.55;44.70;94658.50;5076628;28;20819;-81
2021/07/15 08:48:57;;;;;;;14.63;13.13;;;;;;;33.55;45.14;94661.22;5076726;28;20420;-81
2021/07/15 08:51:25;;;;;;;15.80;13.30;;;;;;;33.28;44.91;94656.13;5076654;28;20805;-81
2021/07/15 08:53:53;;;;;;;19.27;15.37;;;;;;;33.17;46.33;94646.34;5076624;28;20516;-81
2021/07/15 08:56:37;;;;;;;16.27;14.67;;;;;;;33.28;45.07;94647.97;5077287;28;20551;-83
2021/07/15 08:59:05;;;;;;;16.30;13.27;;;;;;;33.41;44.68;94652.81;5076875;28;20440;-80
2021/07/15 09:01:32;;;;;;;21.97;15.00;;;;;;;33.37;45.14;94645.50;5076614;28;20472;-80
2021/07/15 09:04:00;;;;;;;14.10;12.70;;;;;;;33.56;45.73;94646.53;5076452;28;20439;-80
2021/07/15 09:06:29;;;;;;;23.20;13.30;;;;;;;33.60;45.03;94644.03;5076681;28;20451;-81
2021/07/15 09:08:56;;;;;;;14.17;12.87;;;;;;;33.45;45.91;94644.91;5076498;28;20451;-81
2021/07/15 09:11:24;;;;;;;15.93;13.60;;;;;;;32.73;46.62;94640.75;5076515;28;20607;-81
2021/07/15 09:13:51;;;;;;;18.63;13.70;;;;;;;32.86;47.66;94640.19;5076603;28;20423;-80
2021/07/15 09:16:19;;;;;;;14.53;13.23;;;;;;;32.79;46.66;94635.03;5076579;28;20441;-81
2021/07/15 09:18:56;;;;;;;19.30;14.40;;;;;;;32.59;46.76;94630.41;5076448;28;20440;-81
2021/07/15 09:31:31;;;;;;;18.73;14.83;;;;;;;33.44;47.63;94622.34;5074983;28;20430;-80
2021/07/15 09:33:58;;;;;;;14.37;12.73;;;;;;;33.58;46.11;94629.91;5076164;28;20440;-81
2021/07/15 09:36:25;;;;;;;15.67;13.17;;;;;;;32.92;45.62;94611.88;5076316;28;20814;-81
2021/07/15 09:38:52;;;;;;;15.23;13.17;;;;;;;32.69;47.21;94612.47;5076102;28;20440;-81
2021/07/15 09:41:20;;;;;;;14.43;12.83;;;;;;;32.30;48.81;94604.91;5076048;28;20483;-80
2021/07/15 09:43:48;;;;;;;16.83;12.70;;;;;;;32.35;48.76;94608.44;5076328;28;20501;-80
2021/07/15 09:46:18;;;;;;;14.60;13.20;;;;;;;32.71;47.25;94616.56;5075937;28;20461;-81
2021/07/15 09:48:48;;;;;;;13.67;12.37;;;;;;;32.72;47.31;94611.94;5075093;28;20457;-80
2021/07/15 09:51:16;;;;;;;16.10;12.53;;;;;;;32.96;47.74;94623.84;5075179;28;20931;-81
2021/07/15 09:53:43;;;;;;;14.93;13.13;;;;;;;32.72;47.33;94609.22;5076192;28;20776;-81
2021/07/15 09:56:12;;;;;;;14.63;12.70;;;;;;;32.73;48.33;94608.13;5075441;28;20479;-81
2021/07/15 09:58:40;;;;;;;13.20;11.90;;;;;;;32.40;48.79;94613.06;5075451;28;20917;-81
2021/07/15 10:01:10;;;;;;;16.87;12.60;;;;;;;32.45;49.04;94607.63;5075318;28;20465;-81
2021/07/15 10:03:39;;;;;;;15.40;12.10;;;;;;;32.59;48.57;94605.16;5075479;28;20481;-81
2021/07/15 10:06:09;;;;;;;14.80;12.23;;;;;;;32.70;48.56;94600.53;5040485;28;20437;-81
2021/07/15 10:08:37;;;;;;;26.17;13.40;;;;;;;32.81;48.88;94600.25;5075717;28;20899;-80
2021/07/15 10:11:19;;;;;;;20.90;12.20;;;;;;;32.99;49.40;94589.88;5075204;28;20875;-80
2021/07/15 10:13:47;;;;;;;16.10;13.07;;;;;;;32.93;48.22;94587.16;5075354;28;20439;-82
2021/07/15 10:16:15;;;;;;;15.30;12.50;;;;;;;32.76;48.09;94591.25;5075130;28;20440;-80
2021/07/15 10:18:45;;;;;;;14.57;13.03;;;;;;;32.79;47.92;94590.75;5075300;28;20841;-81
2021/07/15 10:21:15;;;;;;;14.13;12.80;;;;;;;32.61;48.26;94582.03;5074817;28;20468;-81
2021/07/15 10:23:44;;;;;;;15.90;12.50;;;;;;;32.65;47.73;94574.97;5075036;28;20943;-81
2021/07/15 10:32:55;;;;;;;17.80;13.27;;;;;;;32.40;49.42;94572.31;5073937;28;20424;-80
2021/07/15 10:35:25;;;;;;;18.70;12.50;;;;;;;32.52;47.92;94580.16;5075848;28;20930;-81
2021/07/15 10:37:56;;;;;;;14.43;12.13;;;;;;;32.51;47.50;94582.06;5074905;28;20445;-82
2021/07/15 10:40:24;;;;;;;14.43;12.23;;;;;;;32.34;48.11;94562.53;5074757;28;20432;-81
2021/07/15 10:42:53;;;;;;;15.53;12.57;;;;;;;32.46;48.46;94564.97;5074663;28;20437;-81
2021/07/15 10:45:20;;;;;;;13.17;11.87;;;;;;;32.60;48.67;94569.53;5074599;28;20516;-80
2021/07/15 10:47:51;;;;;;;16.37;12.07;;;;;;;32.48;47.58;94562.78;5074412;28;20433;-82
2021/07/15 10:50:18;;;;;;;14.90;12.40;;;;;;;32.57;48.05;94561.13;5074488;28;20440;-81
2021/07/15 10:52:46;;;;;;;16.30;11.73;;;;;;;32.48;47.17;94557.34;5074800;28;20429;-80
2021/07/15 10:55:16;;;;;;;14.23;12.70;;;;;;;32.67;47.70;94566.53;5074324;28;20475;-81
2021/07/15 10:57:43;;;;;;;15.00;12.00;;;;;;;32.71;48.01;94558.66;5074189;28;20793;-80
2021/07/15 11:00:27;;;;;;;12.80;11.50;;;;;;;32.87;47.47;94560.25;5074335;28;20532;-80
2021/07/15 11:03:11;;;;;;;14.73;11.70;;;;;;;32.89;46.84;94558.06;5074032;28;20472;-80
2021/07/15 11:05:47;;;;;;;13.80;10.80;;;;;;;32.93;44.79;94551.00;5074979;28;20795;-80
2021/07/15 11:11:40;;;;;;;13.20;11.47;;;;;;;32.90;44.75;94549.66;5073356;28;20478;-81
2021/07/15 11:14:07;;;;;;;12.57;11.10;;;;;;;33.01;45.06;94547.72;5024240;28;20865;-81
2021/07/15 11:16:48;;;;;;;18.13;12.97;;;;;;;32.95;43.50;94551.53;5073877;28;20437;-82
2021/07/15 11:19:48;;;;;;;17.77;12.00;;;;;;;33.04;42.77;94540.91;5039040;28;20428;-80
2021/07/15 11:22:40;;;;;;;12.97;11.40;;;;;;;33.04;44.95;94547.16;5073556;28;20576;-80
2021/07/15 11:25:09;;;;;;;18.33;12.10;;;;;;;32.94;45.03;94542.56;5073524;28;20901;-80
2021/07/15 11:27:43;;;;;;;17.70;12.63;;;;;;;33.00;44.11;94543.38;5073949;28;20520;-82
2021/07/15 11:30:14;;;;;;;12.77;11.60;;;;;;;33.13;44.64;94534.59;5074160;28;20524;-81
2021/07/15 11:32:41;;;;;;;13.80;12.40;;;;;;;32.98;44.86;94528.44;5073598;28;20445;-80
2021/07/15 11:35:25;;;;;;;14.07;12.67;;;;;;;32.92;44.09;94527.63;5073696;28;20472;-81
2021/07/15 11:38:10;;;;;;;14.50;13.00;;;;;;;33.03;43.89;94528.41;5073808;28;20531;-81
2021/07/15 11:41:00;;;;;;;19.73;12.97;;;;;;;33.03;44.55;94528.41;5073885;28;20513;-81
2021/07/15 11:43:32;;;;;;;19.33;13.10;;;;;;;33.03;44.55;94531.13;5073896;28;20459;-81
2021/07/15 11:49:42;;;;;;;13.10;11.87;;;;;;;33.14;44.20;94527.25;5073578;28;20431;-81
2021/07/15 11:52:15;;;;;;;21.03;12.93;;;;;;;33.00;42.56;94528.97;5073252;28;20862;-80
2021/07/15 11:54:45;;;;;;;15.10;12.00;;;;;;;32.98;42.91;94531.97;5074111;28;20468;-81
2021/07/15 11:57:24;;;;;;;22.90;13.13;;;;;;;33.01;42.67;94522.44;5073724;28;20461;-81
2021/07/15 11:59:54;;;;;;;16.87;12.80;;;;;;;32.81;42.37;94518.69;5073630;28;20440;-81
2021/07/15 12:02:36;;;;;;;19.33;13.57;;;;;;;33.02;43.31;94530.31;5073357;28;21005;-81
2021/07/15 12:05:11;;;;;;;15.77;14.20;;;;;;;33.15;43.76;94515.28;5073458;28;20904;-80
2021/07/15 12:07:40;;;;;;;16.30;12.80;;;;;;;33.21;42.79;94516.88;5038601;28;20447;-81
2021/07/15 12:10:10;;;;;;;19.70;12.47;;;;;;;33.24;42.55;94513.59;5073306;28;20776;-80
2021/07/15 12:12:42;;;;;;;14.43;13.10;;;;;;;33.45;44.48;94504.25;5072448;28;20437;-81
2021/07/15 12:15:17;;;;;;;15.30;12.43;;;;;;;33.37;42.16;94514.91;5073105;28;20516;-81
2021/07/15 12:17:46;;;;;;;15.23;13.80;;;;;;;33.29;43.17;94519.03;5073045;28;20448;-81
2021/07/15 12:20:13;;;;;;;15.33;13.37;;;;;;;33.24;43.93;94517.13;5073105;28;20429;-81
2021/07/15 12:22:48;;;;;;;13.80;12.50;;;;;;;33.12;44.13;94508.50;5073120;28;20483;-81
2021/07/15 12:25:20;;;;;;;14.20;13.00;;;;;;;32.98;43.82;94512.94;5073671;28;20519;-81
2021/07/15 12:27:49;;;;;;;14.77;13.27;;;;;;;32.91;43.39;94513.22;5022849;28;20449;-80
2021/07/15 12:30:19;;;;;;;14.93;13.43;;;;;;;32.78;42.49;94516.50;5073582;28;20510;-82
2021/07/15 12:32:54;;;;;;;15.47;13.97;;;;;;;32.80;41.68;94516.25;5073158;28;20447;-81
2021/07/15 12:35:22;;;;;;;14.27;12.93;;;;;;;32.65;42.18;94508.94;5073016;28;20955;-81
2021/07/15 12:37:49;;;;;;;15.03;13.53;;;;;;;32.88;42.46;94502.09;5022121;28;20528;-81
2021/07/15 12:40:16;;;;;;;16.63;13.47;;;;;;;32.79;40.82;94506.47;5073737;28;20437;-81
2021/07/15 12:42:43;;;;;;;14.87;13.47;;;;;;;32.82;42.15;94514.06;5073188;28;20473;-80
2021/07/15 12:45:46;;;;;;;17.67;12.40;;;;;;;32.91;41.56;94512.41;5073151;28;20525;-81
2021/07/15 12:48:14;;;;;;;19.63;14.20;;;;;;;32.95;40.59;94502.59;5011244;28;20438;-80
2021/07/15 12:50:41;;;;;;;14.50;13.10;;;;;;;32.83;41.76;94496.69;5011167;28;20850;-82
2021/07/15 12:53:10;;;;;;;15.20;13.27;;;;;;;32.92;43.09;94506.69;5011362;28;20526;-81
2021/07/15 12:55:38;;;;;;;18.50;14.50;;;;;;;32.95;41.85;94502.59;5010967;28;21102;-81
2021/07/15 12:58:05;;;;;;;21.90;13.90;;;;;;;32.94;41.28;94495.53;5010886;28;20515;-80
2021/07/15 13:00:36;;;;;;;16.80;15.10;;;;;;;32.99;41.78;94497.44;5011206;28;20563;-81
2021/07/15 13:03:04;;;;;;;15.30;13.83;;;;;;;33.08;42.28;94493.84;5010949;28;20483;-80
2021/07/15 13:05:31;;;;;;;14.10;12.40;;;;;;;33.02;40.34;94486.81;5011092;28;20523;-81
2021/07/15 13:07:59;;;;;;;15.93;14.17;;;;;;;33.04;40.74;94492.78;5010903;28;20443;-80
2021/07/15 13:14:12;;;;;;;15.13;13.30;;;;;;;32.96;41.57;94487.91;5011088;28;20575;-80